Date,TemperatureHighF,TemperatureAvgF,TemperatureLowF,DewpointHighF,DewpointAvgF,DewpointLowF,HumidityHigh,HumidityAvg,HumidityLow,PressureMaxIn,PressureMinIn,WindSpeedMaxMPH,WindSpeedAvgMPH,GustSpeedMaxMPH,PrecipitationSumIn
2013-1-1,29.6,17.5,2.1,18.7,10.0,-3.2,84,73,56,29.35,29.20,17,3,17,0.00
2013-1-2,41.7,19.8,1.0,26.0,12.2,-4.0,83,73,52,29.32,29.17,11,0,11,0.04
2013-1-3,40.8,25.4,13.2,27.8,18.3,9.1,86,75,58,29.47,29.30,11,0,11,0.02
2013-1-4,46.5,26.4,9.1,28.4,18.1,4.9,86,72,48,29.47,29.30,12,1,12,0.00
2013-1-5,45.5,33.8,22.1,33.4,26.3,16.8,83,74,61,29.30,29.13,14,1,14,0.00
2013-1-6,42.4,28.1,20.1,25.1,19.3,13.6,81,70,49,29.45,29.23,12,1,12,0.00
2013-1-7,51.4,35.0,21.9,29.0,23.1,15.9,80,63,42,29.35,29.10,17,1,17,0.00
2013-1-8,55.7,40.5,30.2,34.5,29.3,24.3,79,66,43,29.25,29.02,21,2,21,0.00
2013-1-9,55.2,37.6,23.5,37.4,28.5,19.6,87,71,49,29.48,29.25,9,0,9,0.00
2013-1-10,49.1,43.0,38.1,46.8,38.5,28.1,92,85,62,29.38,28.80,17,2,17,0.41
2013-1-11,59.3,53.2,47.1,47.7,45.7,40.6,93,77,58,28.83,28.65,22,5,22,0.02
2013-1-12,55.2,29.9,21.0,40.6,17.9,10.0,76,61,40,29.16,28.82,28,7,28,0.00
2013-1-13,28.0,18.0,10.9,11.8,6.9,2.3,72,62,50,29.40,29.09,21,4,21,0.00
2013-1-14,33.4,16.7,5.5,14.5,6.2,0.1,81,65,38,29.54,29.39,11,1,16,0.00
2013-1-15,36.1,19.2,8.7,16.4,8.2,3.0,80,64,37,29.45,29.23,7,0,7,0.00
2013-1-16,47.3,26.4,9.6,27.9,16.2,4.0,84,67,40,29.25,29.09,11,1,11,0.00
2013-1-17,49.1,34.4,23.3,29.0,25.1,17.3,86,70,45,29.52,29.25,18,4,18,0.00
2013-1-18,57.7,41.4,24.6,33.0,28.5,19.9,84,62,39,29.47,29.12,21,5,21,0.00
2013-1-19,63.1,46.0,35.4,35.8,29.9,25.4,78,56,33,29.32,29.06,18,1,18,0.00
2013-1-20,39.3,29.9,20.4,26.8,13.1,7.9,65,50,35,29.44,29.32,18,5,18,0.00
2013-1-21,24.0,17.8,11.1,11.6,5.6,1.5,76,59,42,29.49,29.39,19,3,19,0.00
2013-1-22,31.6,20.8,11.8,11.0,6.8,2.0,67,55,41,29.44,29.30,12,2,12,0.00
2013-1-23,51.4,29.2,10.2,27.7,15.6,3.1,76,58,38,29.44,29.21,16,2,16,0.00
2013-1-24,26.7,21.6,10.2,13.7,7.1,0.6,66,54,42,29.52,29.22,18,5,18,0.00
2013-1-25,50.5,32.0,17.7,24.2,16.0,7.5,70,53,36,29.31,29.20,11,0,11,0.00
2013-1-26,59.0,40.4,24.4,29.0,23.3,16.0,74,53,31,29.34,29.14,12,1,12,0.00
2013-1-27,60.4,50.3,39.0,53.6,43.3,27.1,83,77,50,29.15,28.83,16,4,16,0.06
2013-1-28,75.9,65.1,56.8,59.7,56.3,52.3,87,74,52,28.93,28.75,19,5,19,0.00
2013-1-29,67.1,48.2,35.2,60.0,44.3,32.8,91,87,77,28.76,28.49,20,3,20,1.43
2013-1-30,35.7,27.8,0.0,33.3,22.3,0.0,91,80,68,29.04,28.57,27,4,27,0.04
2013-1-31,31.6,17.7,5.5,19.2,8.7,-1.7,84,68,43,29.52,29.00,23,3,23,0.00
2013-2-1,28.0,16.9,3.3,14.2,6.9,-2.3,80,66,51,29.52,29.20,11,2,11,0.00
2013-2-2,65.1,37.4,22.2,37.9,25.1,12.7,76,63,36,29.27,29.15,15,1,15,0.00
2013-2-3,58.2,39.9,28.2,28.7,24.7,19.4,78,57,30,29.34,28.92,16,3,16,0.00
2013-2-4,57.9,39.4,20.8,33.7,26.1,15.8,82,60,39,29.05,28.84,18,4,18,0.00
2013-2-5,69.6,37.0,0.0,37.6,24.7,-3.7,87,65,31,29.16,28.96,14,1,14,0.00
2013-2-6,66.3,47.0,27.1,43.1,33.0,19.9,79,60,39,29.16,28.94,20,4,20,0.00
2013-2-7,50.5,43.6,31.1,44.6,37.7,25.5,90,80,62,29.25,28.91,19,5,19,0.96
2013-2-8,55.2,34.5,27.6,34.1,26.6,23.7,86,74,44,29.40,29.26,13,2,15,0.00
2013-2-9,53.4,36.7,26.9,35.7,29.8,23.8,89,77,49,29.28,28.83,16,5,16,0.02
2013-2-10,53.7,44.6,33.9,45.5,33.8,23.1,92,68,45,29.00,28.57,33,5,33,0.08
2013-2-11,64.0,36.7,23.3,32.6,23.1,16.1,77,60,29,29.23,29.00,8,0,8,0.00
2013-2-12,43.8,31.3,19.9,29.8,22.3,14.7,84,70,52,29.23,29.02,0,0,0,0.00
2013-2-13,32.5,27.7,23.3,26.7,21.9,18.4,84,79,72,29.03,28.96,4,0,4,0.00
2013-2-16,41.9,33.2,27.6,23.7,20.8,17.6,77,60,45,29.35,29.13,13,2,13,0.02
2013-2-17,61.5,43.4,21.0,35.5,27.0,14.8,79,54,38,29.13,28.75,9,1,9,0.00
2013-2-18,53.2,43.1,26.9,44.4,31.5,15.4,80,64,47,29.16,28.62,28,8,28,0.02
2013-2-19,38.1,26.7,18.1,16.7,10.3,2.3,78,52,29,29.40,29.15,23,3,23,0.00
2013-2-20,26.9,21.6,16.7,13.2,7.9,3.0,65,55,48,29.44,29.22,15,4,15,0.00
2013-2-21,27.6,24.4,20.3,24.1,19.2,13.2,88,81,64,29.22,28.80,25,7,25,0.00
2013-2-22,41.3,24.3,0.0,23.0,17.1,-15.5,88,75,47,29.12,28.84,7,2,7,0.16
2013-2-24,48.0,39.3,32.3,27.5,25.0,22.5,70,58,43,29.08,28.96,10,3,10,0.00
2013-2-25,36.8,31.4,0.0,30.1,24.2,-3.2,90,75,65,29.02,28.69,22,7,22,0.04
2013-2-26,37.0,32.6,30.3,31.1,28.9,26.7,91,86,76,28.92,28.61,26,4,26,0.25
2013-2-27,30.3,29.6,29.1,26.9,26.5,26.0,89,88,86,28.96,28.90,10,2,10,0.00
2013-2-28,34.3,30.6,28.4,24.2,22.9,21.9,78,73,66,29.26,29.17,19,5,20,0.00
2013-3-1,35.7,27.4,21.0,24.4,19.7,14.7,80,73,60,29.36,29.23,33,4,33,0.00
2013-3-2,44.2,27.8,20.1,23.0,17.1,12.9,82,66,41,29.41,29.24,16,1,16,0.00
2013-3-3,55.9,36.5,21.9,30.2,23.7,15.3,79,61,37,29.24,28.81,10,2,10,0.00
2013-3-4,56.8,42.0,32.9,35.0,29.7,25.1,84,63,42,29.03,28.73,18,2,18,0.00
2013-3-5,41.9,32.3,0.0,30.5,19.7,-5.5,85,60,47,29.41,29.02,26,5,26,0.04
2013-3-6,46.5,30.1,22.6,24.5,18.4,14.8,76,63,41,29.48,29.33,19,2,19,0.00
2013-3-7,48.9,35.1,21.9,33.8,24.7,16.1,81,67,50,29.35,29.17,12,2,12,0.00
2013-3-8,61.7,50.1,35.7,43.5,37.0,27.9,74,61,49,29.26,29.04,14,2,14,0.00
2013-3-9,59.5,52.7,45.6,53.2,45.3,37.4,92,77,56,29.05,28.67,15,2,15,0.10
2013-3-10,52.3,43.3,0.0,49.7,40.6,0.0,93,90,83,28.96,28.63,20,3,20,0.00
2013-3-11,38.8,29.6,24.9,25.6,21.2,18.4,81,71,52,29.08,28.93,12,1,12,0.00
2013-3-12,51.0,36.4,25.3,31.3,23.5,18.6,82,62,35,29.40,29.07,21,3,21,0.00
2013-3-13,48.5,33.3,21.3,25.0,20.2,15.8,81,61,36,29.53,29.37,12,1,12,0.00
2013-3-14,74.4,49.5,31.6,44.9,32.1,20.8,73,53,33,29.38,29.11,10,1,10,0.00
2013-3-15,84.7,56.5,32.1,50.8,40.6,28.1,86,60,30,29.15,28.75,13,2,13,0.00
2013-3-16,55.9,43.0,0.0,43.1,34.2,-10.2,82,70,59,29.07,28.76,26,8,26,0.00
2013-3-17,34.8,29.5,0.0,30.2,23.4,-6.8,87,78,29,29.09,28.84,18,8,18,0.04
2013-3-18,55.7,46.8,33.8,37.2,27.0,0.0,89,48,33,29.12,28.91,25,4,25,0.13
2013-3-19,40.8,30.9,22.8,34.8,22.9,14.1,89,73,48,29.32,29.12,7,0,7,0.14
2013-3-20,40.6,30.4,21.0,27.7,14.7,9.2,89,54,35,29.45,29.18,22,5,22,0.00
2013-3-21,29.1,25.3,19.9,22.4,15.0,10.1,82,65,53,29.18,28.96,12,3,12,0.00
2013-3-22,32.7,32.1,31.1,29.5,28.9,28.2,89,88,87,29.04,28.99,8,3,8,0.00
2013-3-24,25.5,23.6,21.0,18.6,17.0,14.5,76,76,75,29.15,29.13,9,4,9,0.00
2013-3-25,39.0,25.1,0.0,23.6,17.8,-6.0,81,74,52,29.40,29.12,19,3,19,0.10
2013-3-26,48.0,29.3,12.7,25.1,17.8,8.7,85,65,37,29.48,29.35,10,1,10,0.00
2013-3-27,51.0,37.1,19.5,32.9,25.7,14.0,82,65,45,29.36,29.24,12,2,12,0.00
2013-3-28,67.1,50.6,34.8,43.1,36.5,28.6,78,61,39,29.28,29.17,8,1,8,0.00
2013-3-29,69.2,54.5,42.4,47.4,42.1,37.1,84,65,38,29.27,29.15,12,2,12,0.09
2013-3-30,64.7,50.6,0.0,56.6,44.6,-3.0,91,80,71,29.15,28.98,12,1,12,0.20
2013-3-31,69.0,55.6,39.3,48.7,39.9,28.7,89,58,38,29.04,28.99,21,3,21,0.00
2013-4-1,46.0,40.5,29.4,32.8,23.0,16.2,77,52,32,29.35,29.04,24,7,24,0.00
2013-4-2,50.9,40.9,29.1,25.3,22.5,18.5,66,49,36,29.39,29.30,14,3,14,0.00
2013-4-3,52.3,40.9,29.8,28.0,23.8,19.9,70,52,37,29.42,29.28,15,2,15,0.00
2013-4-4,63.6,48.3,37.0,32.1,27.4,22.3,65,46,29,29.29,29.12,18,2,18,0.00
2013-4-5,71.9,53.0,30.9,45.5,36.8,25.8,83,57,35,29.23,28.95,14,2,14,0.00
2013-4-6,78.6,62.3,49.2,52.3,44.0,37.4,68,52,33,28.95,28.75,19,4,19,0.00
2013-4-7,73.2,51.0,0.0,53.5,42.5,-9.2,87,74,45,28.94,28.74,8,1,8,0.08
2013-4-8,75.3,55.0,0.0,62.4,49.1,-6.8,90,81,63,28.81,28.75,13,3,13,0.00
2013-4-9,68.7,50.8,0.0,61.0,45.2,-6.0,86,80,75,28.81,28.73,7,2,7,0.12
2013-4-10,55.9,40.5,0.0,51.7,37.6,-3.2,91,89,86,29.02,28.80,25,4,25,0.78
2013-4-11,44.2,36.7,30.9,32.1,28.4,23.9,90,73,57,28.90,28.79,12,2,12,0.00
2013-4-12,55.0,40.4,28.9,34.9,29.2,24.0,83,66,45,29.09,28.85,13,2,13,0.00
2013-4-13,66.0,49.3,28.2,46.1,36.9,24.5,87,65,41,29.12,28.78,17,2,17,0.00
2013-4-14,75.5,60.4,0.0,53.3,46.0,-6.8,78,60,44,28.82,28.57,20,5,20,0.00
2013-4-15,55.2,48.0,0.0,41.8,35.2,-12.0,83,62,48,29.06,28.81,19,5,19,0.16
2013-4-16,46.2,43.8,41.3,37.9,33.9,31.9,78,68,61,29.18,29.04,20,8,20,0.00
2013-4-17,55.2,47.4,44.4,52.6,44.0,37.9,92,88,79,29.13,28.69,14,3,14,0.18
2013-4-18,46.9,39.3,35.7,44.5,33.5,26.7,92,80,67,29.02,28.64,15,4,15,0.37
2013-4-19,55.9,42.3,30.3,30.7,26.7,20.4,78,56,32,29.15,28.98,16,2,16,0.00
2013-4-20,59.1,45.1,27.1,36.8,30.2,20.9,80,58,40,29.30,29.15,16,3,16,0.00
2013-4-21,66.3,50.3,44.7,44.3,37.1,32.8,69,61,45,29.28,29.21,11,3,11,0.00
2013-4-22,62.2,58.1,50.1,47.2,46.2,44.8,85,66,56,29.07,28.96,14,4,14,0.04
2013-4-23,50.1,35.9,33.6,43.7,32.1,29.9,89,86,78,29.24,29.05,24,10,24,0.59
2013-4-24,56.1,43.4,0.0,33.2,29.1,-2.5,89,59,40,29.33,29.23,13,2,13,0.02
2013-4-25,72.6,49.5,30.7,43.2,35.0,26.2,84,62,33,29.37,29.28,9,1,9,0.00
2013-4-26,55.4,53.2,51.4,47.3,42.3,38.9,75,67,59,29.29,29.22,14,4,14,0.00
2013-5-1,83.1,51.0,0.0,60.1,39.8,-16.0,83,66,46,29.24,29.04,26,12,26,0.10
2013-5-2,42.6,35.9,0.0,37.7,32.4,0.0,91,87,82,29.44,29.23,24,10,24,0.32
2013-5-3,39.5,36.1,32.7,33.6,32.1,30.3,91,86,74,29.37,28.97,16,5,16,0.43
2013-5-4,49.2,39.4,0.0,40.4,34.3,0.0,92,82,68,29.10,28.90,14,3,14,0.27
2013-5-5,61.7,51.8,42.2,51.2,46.2,38.3,92,82,68,29.18,29.07,14,4,14,0.06
2013-5-6,71.7,54.5,0.0,56.6,48.2,-9.2,90,80,58,29.18,29.09,13,3,13,0.00
2013-5-7,81.1,67.7,45.6,57.7,50.9,42.6,89,58,37,29.15,29.05,6,0,6,0.00
2013-5-8,76.6,62.7,50.5,60.5,53.8,44.7,88,74,52,29.08,28.95,13,2,13,0.24
2013-5-9,82.7,63.6,54.8,64.2,56.5,51.8,90,80,46,29.02,28.94,12,1,12,0.70
2013-5-10,68.5,57.9,47.8,54.1,49.9,43.2,92,76,51,29.12,28.99,20,4,20,0.00
2013-5-11,66.9,55.6,41.1,52.7,37.1,27.4,90,55,31,29.30,29.11,23,5,23,0.00
2013-5-12,73.2,53.7,31.6,41.6,34.6,26.4,83,53,26,29.34,29.20,9,0,9,0.00
2013-5-13,80.7,63.0,40.6,57.6,48.2,36.1,88,62,37,29.22,29.02,9,0,9,0.00
2013-5-14,93.7,70.5,56.3,58.4,53.8,50.9,84,60,29,29.02,28.91,12,1,12,0.00
2013-5-15,88.8,75.4,61.3,65.9,61.2,56.3,84,63,45,28.99,28.92,7,2,7,0.00
2013-5-16,84.2,69.7,57.3,66.1,59.6,53.7,90,72,49,28.96,28.88,7,0,7,0.00
2013-5-17,81.3,69.6,57.5,63.5,59.6,53.5,91,72,54,29.01,28.93,0,0,0,0.00
2013-5-18,86.5,74.9,57.9,71.7,65.6,54.9,91,74,58,28.99,28.80,10,0,10,0.00
2013-5-19,86.0,73.3,0.0,70.8,63.8,-2.3,91,73,59,28.94,28.64,10,1,10,0.30
2013-5-21,78.9,72.2,53.4,57.8,54.2,48.3,83,54,46,28.86,28.76,6,0,6,0.00
2013-5-22,72.1,62.2,52.3,53.9,51.1,47.9,85,68,53,28.92,28.82,32,3,32,0.00
2013-5-23,73.2,64.7,50.7,55.6,52.2,45.8,85,65,54,29.28,29.14,14,2,14,0.00
2013-5-24,76.1,64.3,45.8,56.1,49.9,42.6,90,62,43,29.37,29.19,12,1,12,0.00
2013-5-25,87.6,71.5,59.5,66.9,58.1,0.0,82,64,47,29.22,29.07,8,0,8,0.00
2013-5-26,87.0,74.3,64.2,70.3,65.1,59.9,89,75,55,29.14,28.97,6,0,6,0.00
2013-5-27,74.3,61.3,0.0,66.7,55.9,-4.7,89,82,77,28.95,28.85,13,1,13,0.61
2013-5-28,73.0,46.3,0.0,65.6,41.4,-4.4,82,80,76,28.87,28.74,5,1,5,2.76
2013-5-29,83.1,60.4,0.0,69.0,51.4,-4.2,83,75,61,28.89,28.73,8,2,8,0.16
2013-5-30,75.7,69.0,62.0,65.4,62.1,58.5,91,79,69,28.80,28.71,11,1,11,1.41
2013-5-31,87.6,72.6,0.0,70.3,63.6,-8.0,89,74,52,28.84,28.74,14,2,14,0.76
2013-6-1,80.4,66.2,58.2,61.7,56.4,51.6,92,72,45,29.04,28.76,13,1,13,0.00
2013-6-2,73.0,58.7,46.7,52.9,49.1,42.8,86,71,46,29.16,29.04,13,2,13,0.00
2013-6-3,77.9,68.0,45.6,58.6,54.3,42.0,88,63,47,29.12,28.94,8,1,8,0.00
2013-6-4,79.5,65.7,60.6,66.7,58.8,54.8,89,79,61,29.04,28.93,9,1,9,0.04
2013-6-5,73.0,63.5,60.9,66.5,59.7,57.7,91,88,78,29.03,28.97,12,2,12,0.55
2013-6-6,66.9,63.9,61.3,53.3,52.4,51.1,71,66,61,29.01,28.99,0,0,0,0.00
2013-6-7,77.1,58.4,0.0,57.9,44.1,-16.9,82,58,42,29.07,28.96,8,1,8,0.00
2013-6-8,83.3,71.3,48.9,62.4,57.5,46.1,91,64,47,28.99,28.84,10,1,10,0.00
2013-6-9,86.7,76.2,60.0,64.1,57.9,53.7,83,55,37,28.93,28.84,12,2,12,0.14
2013-6-10,93.3,74.7,0.0,66.7,59.1,-2.3,91,62,34,28.96,28.89,10,1,10,0.00
2013-6-11,97.7,80.9,66.3,72.1,66.6,61.9,89,65,38,28.98,28.88,33,1,33,0.00
2013-6-12,97.5,84.7,73.9,73.8,69.7,62.4,80,62,46,28.99,28.84,23,2,23,0.00
2013-6-13,89.2,74.9,59.5,65.0,59.7,52.3,84,61,43,29.13,28.99,18,2,18,0.00
2013-6-14,94.6,78.3,61.7,75.8,67.8,58.4,91,72,49,29.08,28.94,12,1,12,0.00
2013-6-15,97.3,78.5,0.0,77.5,69.2,0.0,91,75,46,29.07,28.96,10,1,10,0.00
2013-6-16,90.5,81.4,70.5,75.2,71.8,68.2,93,74,58,29.04,28.96,8,1,8,1.20
2013-6-17,85.1,72.7,63.5,69.9,66.1,60.4,91,80,58,29.08,28.96,8,0,8,0.02
2013-6-18,90.1,72.8,59.5,72.2,63.9,57.2,93,76,47,29.09,29.02,13,1,13,0.09
2013-6-19,91.2,81.8,62.6,71.5,67.1,59.7,90,63,47,29.11,29.01,6,0,6,0.02
2013-6-20,91.7,79.9,65.8,74.8,69.2,61.8,89,71,56,29.08,28.96,19,1,19,0.00
2013-6-21,95.5,83.3,73.0,76.6,71.3,65.8,87,69,51,29.06,28.97,12,0,12,0.00
2013-6-22,96.6,82.8,71.2,75.3,70.0,65.2,84,67,46,29.07,28.93,8,0,8,0.00
2013-6-23,96.0,82.6,72.1,76.0,70.4,66.8,85,68,50,29.02,28.90,11,0,11,0.00
2013-6-24,94.6,82.5,73.9,73.4,68.9,66.3,78,65,46,29.03,28.86,12,0,12,0.00
2013-6-25,93.5,81.0,73.7,75.7,69.5,66.7,85,69,52,28.97,28.80,16,1,16,0.00
2013-6-26,100.9,85.1,69.9,76.7,68.8,61.1,87,62,31,28.97,28.80,26,2,26,0.00
2013-6-27,95.1,78.9,66.9,79.2,68.9,61.8,89,73,55,29.07,28.90,19,0,19,0.30
2013-6-28,92.1,80.4,64.9,73.2,63.2,55.0,92,58,38,29.02,28.94,20,4,20,0.02
2013-6-29,87.0,74.2,62.0,62.3,57.3,53.0,79,58,36,28.95,28.88,23,5,23,0.00
2013-6-30,83.1,70.1,58.8,60.7,56.3,53.3,84,63,44,29.09,28.94,17,4,17,0.00
2013-7-1,84.5,70.9,57.9,59.0,53.4,49.4,81,57,36,29.17,29.09,20,4,20,0.00
2013-7-2,93.3,71.0,52.8,60.2,53.3,48.7,87,58,31,29.19,29.11,11,1,13,0.00
2013-7-3,95.3,70.9,54.1,62.4,55.6,50.3,89,63,31,29.15,29.05,14,0,14,0.00
2013-7-4,97.1,92.9,88.1,63.2,60.3,58.2,38,34,31,29.10,29.04,5,0,5,0.00
2013-7-5,98.2,81.0,0.0,67.3,60.0,-7.7,74,51,35,29.07,28.97,8,0,8,0.00
2013-7-6,94.8,76.8,65.1,69.2,62.7,57.3,77,63,42,29.05,28.98,10,0,10,0.00
2013-7-7,97.1,81.5,70.3,71.0,66.4,63.1,78,62,41,29.06,28.99,11,0,11,0.00
2013-7-8,100.5,84.1,69.6,73.7,67.6,62.6,80,60,39,29.10,29.04,25,0,25,0.00
2013-7-9,105.4,87.7,71.6,77.5,71.0,64.7,81,60,39,29.07,28.92,28,2,28,0.00
2013-7-10,95.9,84.3,67.2,74.3,67.0,59.7,80,58,35,29.10,28.96,13,1,13,0.00
2013-7-11,72.3,66.3,64.5,61.8,60.0,58.6,83,80,69,29.13,29.08,4,0,4,0.00
2013-7-13,98.7,84.4,0.0,70.8,63.2,-17.3,65,50,39,29.10,29.02,8,1,8,0.00
2013-7-14,92.3,86.8,69.6,64.1,61.4,58.7,75,44,36,29.12,29.07,12,3,12,0.00
2013-7-15,95.7,87.3,65.1,69.5,66.7,60.8,87,52,42,29.24,29.15,10,1,10,0.00
2013-7-16,100.2,74.6,0.0,72.3,60.2,-19.8,89,64,36,29.33,29.23,19,0,19,0.00
2013-7-17,98.9,70.1,0.0,73.0,60.5,-17.8,88,72,40,29.36,29.27,7,0,7,0.00
2013-7-18,103.2,82.9,66.0,71.3,65.9,62.6,90,62,33,29.27,29.07,10,1,10,0.00
2013-7-19,106.1,85.5,65.4,71.0,65.9,61.3,88,57,30,29.08,28.93,26,2,26,0.00
2013-7-20,96.0,78.0,71.4,72.8,68.3,64.3,89,74,43,29.01,28.92,9,0,9,0.08
2013-7-21,94.2,78.4,68.5,72.6,68.1,64.8,92,73,47,29.01,28.87,6,0,6,0.06
2013-7-22,101.3,81.6,66.3,75.3,68.1,63.5,92,67,42,28.92,28.85,12,1,12,0.00
2013-7-23,92.6,79.2,65.8,75.1,68.3,62.6,91,71,50,28.99,28.89,19,2,19,0.00
2013-7-24,91.0,77.4,65.6,64.9,59.5,55.8,77,57,34,29.12,28.97,14,1,14,0.00
2013-7-25,98.7,73.6,0.0,67.6,60.8,-4.4,87,67,34,29.16,29.08,4,0,4,0.00
2013-7-26,89.2,77.3,66.9,69.6,62.6,52.9,89,63,41,29.12,29.04,18,2,18,0.07
2013-7-27,82.2,67.0,52.5,58.2,53.2,48.4,88,64,39,29.18,29.04,16,1,16,0.00
2013-7-28,79.3,66.4,54.5,58.5,54.3,51.2,90,68,41,29.13,29.07,6,0,6,0.00
2013-7-29,71.6,64.7,59.5,67.1,61.0,55.6,92,88,83,29.15,29.01,10,0,10,0.38
2013-7-30,87.2,76.6,0.0,75.4,69.6,-1.6,94,80,64,29.13,29.03,12,2,12,0.90
2013-7-31,89.4,77.2,66.3,71.1,66.7,62.0,92,72,47,29.18,29.10,12,1,12,0.00
2013-8-1,96.4,80.1,62.2,71.4,65.8,59.6,91,65,39,29.18,29.03,24,0,24,0.00
2013-8-2,91.7,78.3,67.1,74.8,69.8,64.3,92,76,54,29.05,28.92,11,1,11,0.69
2013-8-3,86.3,76.4,69.6,74.5,69.7,66.4,92,81,64,29.18,28.97,9,1,9,1.14
2013-8-4,75.0,70.6,65.3,70.9,66.8,61.9,93,88,79,29.20,29.09,8,0,8,1.33
2013-8-5,89.4,77.7,68.5,75.6,71.0,66.3,93,81,63,29.12,28.91,11,1,11,0.00
2013-8-6,91.9,79.1,68.9,77.5,71.9,66.4,93,80,59,28.96,28.86,7,0,7,0.14
2013-8-7,92.1,78.2,68.7,75.5,70.9,63.6,93,79,57,29.02,28.85,15,0,15,0.98
2013-8-8,75.3,70.8,67.8,67.4,64.9,62.6,87,82,73,29.08,28.91,17,1,17,0.00
2013-8-9,74.8,67.0,0.0,67.3,62.2,-5.2,90,85,74,29.18,29.04,7,0,7,0.09
2013-8-10,88.3,77.7,62.2,68.3,64.3,57.8,90,65,48,29.26,29.15,8,1,8,0.02
2013-8-11,93.7,74.8,58.8,70.8,64.1,55.9,91,72,46,29.20,29.09,3,0,13,0.00
2013-8-12,86.1,72.5,0.0,72.2,64.9,-2.5,92,78,57,29.11,29.02,13,1,13,0.44
2013-8-13,83.3,72.4,62.2,66.1,62.8,58.3,92,74,46,29.19,29.08,9,1,9,0.00
2013-8-14,85.2,69.5,59.0,64.8,59.0,54.5,92,72,46,29.26,29.16,7,0,7,0.00
2013-8-15,83.1,68.3,60.0,62.0,57.7,54.9,85,70,47,29.19,29.07,6,0,6,0.00
2013-8-16,80.9,67.7,56.6,61.0,56.8,51.9,87,70,49,29.22,29.13,11,1,11,0.00
2013-8-17,82.7,67.9,52.7,60.1,55.2,49.5,89,67,43,29.26,29.16,10,1,10,0.00
2013-8-18,89.4,71.1,52.5,66.8,58.8,49.3,90,68,43,29.23,29.13,12,0,12,0.00
2013-8-19,90.8,76.7,57.3,69.6,63.6,54.1,91,67,45,29.17,29.06,10,0,10,0.00
2013-8-20,93.7,76.4,60.6,70.3,64.8,57.7,91,70,44,29.13,29.05,18,0,18,0.00
2013-8-21,95.1,78.4,61.5,73.2,66.8,58.6,91,70,47,29.15,29.07,14,0,14,0.00
2013-8-22,98.6,80.4,66.0,74.3,69.0,62.6,92,71,43,29.15,29.07,18,0,18,0.00
2013-8-23,97.5,79.9,65.1,74.3,67.3,62.4,92,69,41,29.15,29.07,14,0,14,0.00
2013-8-24,96.6,80.9,67.6,75.9,69.6,64.0,91,71,48,29.20,29.10,23,0,23,0.00
2013-8-25,97.8,81.8,67.8,76.4,70.0,64.1,89,70,47,29.27,29.18,25,1,25,0.00
2013-8-26,98.0,81.7,66.9,74.3,69.6,63.8,91,69,44,29.24,29.13,21,0,21,0.00
2013-8-27,96.9,79.7,64.9,72.5,66.6,62.2,92,68,41,29.15,29.06,19,1,19,0.00
2013-8-28,97.8,79.2,63.3,73.4,67.7,60.0,90,71,44,29.13,29.07,8,0,8,0.00
2013-8-29,100.0,82.3,68.1,75.7,70.3,65.1,91,70,45,29.11,29.02,25,1,25,0.00
2013-8-30,103.8,84.3,68.3,76.4,70.0,65.3,91,66,34,29.04,28.91,28,2,28,0.00
2013-8-31,98.4,81.0,70.3,78.3,70.4,66.5,89,72,48,28.94,28.86,9,0,9,0.06
2013-9-1,92.8,76.0,67.6,74.4,67.2,60.7,92,76,51,29.02,28.83,28,2,28,0.33
2013-9-2,84.5,71.4,60.0,63.9,59.8,54.9,90,69,47,29.12,29.02,14,1,14,0.00
2013-9-3,90.1,70.0,52.5,63.7,57.0,49.6,90,68,37,29.17,29.08,7,0,7,0.00
2013-9-4,92.4,71.3,52.8,65.3,58.6,50.0,90,68,37,29.23,29.12,6,0,6,0.00
2013-9-5,93.9,73.0,55.5,68.0,60.5,52.7,91,69,40,29.27,29.16,9,0,9,0.00
2013-9-6,95.7,76.4,59.7,68.7,62.9,56.1,90,66,40,29.20,29.06,18,0,18,0.00
2013-9-7,100.9,80.8,63.6,72.3,66.2,59.2,88,65,38,29.07,28.96,24,1,24,0.00
2013-9-8,105.2,85.0,68.7,72.6,67.8,62.9,83,60,32,28.98,28.90,26,2,26,0.00
2013-9-9,99.1,81.0,65.1,70.2,64.1,58.6,88,60,33,29.02,28.94,20,1,20,0.00
2013-9-10,97.7,79.7,63.6,70.3,64.2,59.3,87,62,37,29.14,29.01,25,1,25,0.00
2013-9-11,99.3,78.8,60.8,68.1,62.2,57.1,88,61,31,29.19,29.08,31,1,31,0.00
2013-9-12,87.4,75.5,68.1,71.2,64.1,48.3,89,69,48,29.21,29.11,21,1,21,0.27
2013-9-13,79.1,65.0,50.1,54.6,49.5,44.7,84,59,38,29.24,29.11,10,0,10,0.00
2013-9-14,84.5,65.5,48.0,56.5,50.5,43.7,87,62,37,29.17,29.01,22,0,22,0.00
2013-9-15,91.9,73.7,60.2,66.1,59.2,51.8,83,62,42,29.18,29.00,18,1,18,0.00
2013-9-16,66.0,60.8,58.8,60.0,56.9,55.6,91,87,79,29.31,29.18,12,3,12,0.24
2013-9-17,74.1,65.1,60.0,68.1,61.9,57.4,93,90,80,29.24,29.03,9,0,9,0.70
2013-9-18,93.5,78.0,64.7,73.8,68.0,62.7,93,73,51,29.04,28.89,13,1,14,0.00
2013-9-19,95.0,79.4,65.4,72.3,66.9,62.4,91,68,42,28.98,28.81,15,2,15,0.02
2013-9-20,70.8,61.7,48.5,62.9,51.9,43.8,91,71,49,29.12,28.97,17,3,17,0.01
2013-9-21,79.7,60.1,0.0,53.9,47.0,-2.7,90,66,36,29.11,28.98,6,0,6,0.00
2013-9-22,80.7,62.0,0.0,55.9,48.4,-4.2,90,64,38,29.07,28.93,10,0,10,0.00
2013-9-23,80.6,63.6,48.0,57.0,51.4,44.0,90,67,42,29.00,28.84,11,1,11,0.00
2013-9-24,72.3,64.0,55.5,58.5,55.3,50.9,85,74,61,28.92,28.83,9,0,9,0.00
2013-9-25,82.5,70.5,58.6,65.4,60.9,55.1,89,73,53,28.97,28.88,7,0,7,0.00
2013-9-26,88.8,73.2,0.0,63.5,58.4,-4.7,92,62,39,28.99,28.90,10,2,10,0.00
2013-9-27,90.5,75.1,64.5,65.9,61.0,58.2,81,63,41,29.04,28.91,13,1,13,0.00
2013-9-28,71.9,63.3,48.5,63.9,56.5,45.6,91,79,66,29.15,28.89,9,0,9,0.02
2013-9-29,78.0,58.2,41.1,58.5,48.0,38.7,91,73,40,29.17,29.01,6,0,6,0.00
2013-9-30,82.9,62.7,42.6,62.4,52.9,39.9,91,73,48,29.01,28.87,8,0,8,0.00
2013-10-1,86.1,67.4,51.4,68.1,59.4,48.4,93,78,52,29.04,28.91,8,0,8,0.00
2013-10-2,88.3,70.8,57.3,72.3,63.6,54.7,92,80,54,29.08,28.94,10,0,10,0.00
2013-10-3,89.0,73.9,66.0,72.8,66.3,62.9,92,78,56,28.95,28.81,12,1,12,0.00
2013-10-4,90.5,75.7,64.9,72.2,66.3,60.9,90,74,49,28.98,28.81,15,1,15,0.03
2013-10-5,64.9,53.4,42.6,61.1,41.2,34.9,88,65,42,29.11,28.96,10,1,10,0.00
2013-10-6,66.0,54.1,42.0,44.9,41.0,33.9,80,62,46,29.07,28.92,12,2,12,0.00
2013-10-7,76.2,58.8,35.4,49.0,43.2,32.1,89,60,36,29.20,29.06,7,0,7,0.00
2013-10-8,79.8,60.7,0.0,53.0,45.4,-3.2,88,61,36,29.17,29.08,12,1,12,0.00
2013-10-9,80.7,60.9,46.0,53.3,47.0,41.9,86,64,35,29.17,29.07,8,0,8,0.00
2013-10-10,82.9,64.0,42.6,59.5,51.1,38.6,89,65,41,29.13,28.93,10,0,10,0.00
2013-10-11,77.7,65.6,54.5,64.7,57.8,49.8,86,76,63,28.95,28.84,13,1,13,0.02
2013-10-12,70.3,56.9,42.0,53.9,43.4,36.9,84,63,38,29.31,28.96,17,3,17,0.00
2013-10-13,73.5,53.9,39.0,44.5,38.4,35.0,87,60,31,29.44,29.30,14,1,14,0.00
2013-10-14,70.1,57.5,48.0,57.4,46.4,36.0,89,68,44,29.34,28.94,15,1,15,0.02
2013-10-15,63.5,54.1,0.0,55.9,44.1,-4.2,91,70,48,29.14,28.92,14,2,14,0.00
2013-10-16,62.7,51.6,36.1,43.1,40.2,32.1,87,67,47,29.16,29.03,12,1,12,0.00
2013-10-17,70.1,53.1,37.4,47.0,40.6,33.7,89,65,41,29.08,28.97,14,0,14,0.02
2013-10-18,51.4,39.9,34.5,39.5,34.4,30.3,89,81,55,29.19,29.08,14,1,14,0.02
2013-10-19,64.2,42.0,0.0,43.3,33.6,-8.0,91,75,38,29.16,28.96,7,1,7,0.00
2013-10-20,74.8,56.2,38.8,46.8,41.2,0.0,87,61,36,28.96,28.87,10,1,10,0.00
2013-10-21,57.9,46.0,32.5,42.8,33.8,27.5,84,64,41,29.18,29.02,12,2,12,0.00
2013-10-22,64.2,48.6,0.0,46.4,37.2,-6.3,84,66,44,29.16,28.98,19,1,19,0.00
2013-10-23,55.2,41.5,28.7,38.1,32.6,24.8,88,72,48,29.24,29.09,5,0,5,0.00
2013-10-24,52.1,39.7,0.0,34.8,26.7,-8.0,83,62,38,29.50,29.20,33,3,33,0.00
2013-10-25,60.6,39.4,20.1,34.3,24.7,15.9,87,60,30,29.53,29.22,10,0,10,0.00
2013-10-26,64.0,47.8,32.1,45.0,33.8,24.6,82,60,36,29.24,29.15,17,1,17,0.00
2013-10-27,67.2,42.3,21.3,37.8,27.9,17.2,87,61,31,29.22,29.01,10,0,10,0.00
2013-10-28,66.7,46.0,28.9,51.1,38.4,23.2,88,76,56,29.20,29.04,6,0,6,0.00
2013-10-29,52.5,48.1,0.0,50.2,45.3,-2.5,92,90,86,29.15,29.07,7,1,7,0.02
2013-10-30,69.2,61.0,0.0,64.2,58.5,-2.0,93,89,76,28.94,28.80,12,2,12,0.00
2013-11-1,60.9,52.6,44.2,43.7,39.5,36.8,77,62,49,29.06,28.89,17,2,17,0.00
2013-11-2,56.3,44.2,31.6,40.2,34.3,27.0,85,70,45,29.27,29.05,15,2,15,0.00
2013-11-3,55.9,36.0,28.2,39.9,30.0,24.8,90,80,52,29.23,29.15,13,1,13,0.00
2013-11-4,60.4,53.7,49.6,47.4,44.0,41.1,75,70,61,29.13,28.96,12,4,12,0.02
2013-11-5,59.5,58.0,47.6,57.3,55.6,44.6,93,92,89,28.99,28.93,9,2,9,0.00
2013-11-6,47.6,38.5,29.3,44.6,33.4,26.2,90,82,69,29.40,28.99,20,3,20,0.00
2013-11-7,57.0,39.1,26.4,41.1,30.1,23.7,91,73,44,29.45,29.38,14,1,14,0.00
2013-11-8,65.4,47.9,28.0,41.5,33.8,24.2,88,61,34,29.39,28.96,20,3,20,0.00
2013-11-9,66.7,48.5,35.4,44.0,34.9,28.8,84,62,37,29.35,29.05,11,0,11,0.00
2013-11-10,62.0,48.8,35.2,38.4,34.0,29.0,81,58,37,29.46,29.27,15,1,15,0.00
2013-11-11,65.1,48.8,0.0,51.5,39.5,-5.0,85,70,60,29.58,29.22,22,4,22,0.00
2013-11-12,28.7,11.9,0.0,14.7,4.4,-9.9,63,59,51,29.88,29.69,21,9,21,0.00
2013-11-13,48.9,39.0,29.3,22.9,20.9,18.3,64,49,32,29.61,29.24,13,4,13,0.00
2013-11-14,56.1,42.7,0.0,32.1,25.3,-18.3,60,49,38,29.24,29.03,60,3,60,0.00
2013-11-15,61.5,48.9,0.0,44.3,37.2,-9.2,82,64,51,29.04,28.81,11,2,11,0.00
2013-11-16,70.7,61.6,49.6,59.0,54.6,44.3,85,78,63,28.82,28.51,63,8,63,0.00
2013-11-17,68.3,57.5,0.0,59.7,39.6,-29.0,83,55,22,29.15,28.43,20,4,20,0.00
2013-11-18,64.5,43.2,29.3,43.4,28.3,20.1,84,58,31,29.35,29.14,10,0,10,0.00
2013-11-19,62.2,46.5,29.1,35.9,27.6,21.6,76,51,29,29.31,29.05,21,4,21,0.00
2013-11-20,50.1,46.0,40.2,38.5,32.2,21.6,79,61,34,29.06,28.93,18,3,18,0.00
2013-11-21,49.6,40.9,0.0,45.9,35.8,-3.0,90,83,71,29.37,29.02,19,3,19,0.02
2013-11-22,30.7,26.4,23.5,24.5,21.5,18.8,86,81,77,29.66,29.49,21,5,21,0.00
2013-11-23,30.2,23.3,14.1,18.8,12.3,5.1,82,64,43,29.81,29.64,21,5,21,0.00
2013-11-24,29.4,20.1,9.6,14.3,9.3,3.5,79,63,49,29.78,29.38,8,0,8,0.00
2013-11-25,40.6,30.1,19.9,22.7,17.9,13.8,80,61,48,29.38,29.22,8,0,8,0.00
2013-11-26,39.3,28.4,17.4,27.0,18.4,7.7,86,67,44,29.46,29.21,30,5,30,0.00
2013-11-27,36.6,23.2,11.8,15.0,10.5,0.0,76,60,39,29.49,29.24,8,0,8,0.00
2013-11-28,43.8,30.2,20.1,24.9,17.8,12.7,74,61,46,29.52,29.21,12,1,12,0.00
2013-11-29,53.7,41.8,30.7,31.6,26.2,19.9,70,54,42,29.51,29.31,6,0,6,0.00
2013-11-30,58.2,43.4,33.8,39.3,30.6,21.9,75,61,48,29.30,29.14,6,0,6,0.00
2013-12-1,55.5,48.2,0.0,40.6,37.9,0.0,88,69,55,29.16,29.12,6,0,6,0.00
2013-12-2,51.4,40.8,33.4,43.9,36.8,29.9,91,86,73,28.92,28.68,5,0,5,0.00
2013-12-3,59.9,41.7,0.0,48.2,37.6,-6.8,93,86,63,28.68,28.60,5,0,5,0.00
2013-12-4,42.9,32.6,23.0,40.2,28.1,14.1,91,83,69,29.10,28.57,14,1,14,0.00
2013-12-5,23.1,18.1,16.3,14.1,8.0,5.1,78,64,58,29.43,29.10,19,6,19,0.00
2013-12-6,18.3,14.3,7.5,5.7,0.9,-1.8,66,55,44,29.68,29.40,22,7,22,0.00
2013-12-7,22.6,13.7,3.0,5.1,1.8,-3.4,76,60,44,29.74,29.40,16,3,16,0.00
2013-12-8,24.9,20.9,18.1,19.1,13.4,5.1,86,73,54,29.40,29.03,12,1,12,0.00
2013-12-9,19.5,12.5,6.9,15.9,5.4,0.1,86,74,59,29.46,29.22,14,1,14,0.00
2013-12-10,42.0,21.6,5.5,20.3,10.7,-0.2,79,64,40,29.40,29.24,8,0,8,0.00
2013-12-11,28.7,19.1,6.0,18.3,8.0,-2.6,83,63,40,29.66,29.28,22,4,22,0.00
2013-12-12,48.0,26.1,4.8,21.5,12.7,-2.3,76,59,34,29.65,29.24,11,1,11,0.00
2013-12-13,37.0,30.8,24.0,32.0,26.3,17.9,89,83,76,29.24,28.91,8,1,8,0.02
2013-12-14,33.0,24.4,14.7,30.7,20.0,10.9,91,83,78,29.29,28.94,23,4,23,0.00
2013-12-15,49.8,31.4,12.5,33.7,22.7,9.1,87,71,51,29.28,29.03,9,0,9,0.00
2013-12-16,60.0,40.3,22.8,35.1,27.1,18.2,83,61,37,29.21,29.02,14,1,14,0.00
2013-12-17,53.9,32.2,19.4,36.7,21.4,13.4,85,66,42,29.34,29.20,15,1,15,0.00
2013-12-18,64.7,42.4,18.1,37.5,28.8,12.9,84,61,37,29.29,28.86,16,4,16,0.00
2013-12-19,55.9,52.2,0.0,49.9,44.2,-6.0,83,74,59,28.85,28.71,14,3,14,0.00
2013-12-20,54.6,25.1,20.4,48.4,20.8,15.8,88,84,75,29.00,28.73,18,2,18,0.00
2013-12-21,28.0,24.6,20.8,25.2,20.7,16.3,89,85,81,28.94,28.64,14,2,14,0.00
2013-12-22,26.0,20.4,5.7,23.0,16.1,1.4,89,83,78,29.43,28.77,0,0,0,0.00
2013-12-23,16.3,8.1,1.2,8.0,2.4,-4.4,85,78,68,29.66,29.40,0,0,0,0.00
2013-12-24,29.4,17.2,-1.4,25.8,11.5,-6.1,86,78,62,29.64,29.24,0,0,0,0.00
2013-12-25,42.9,30.9,19.2,30.3,24.6,14.9,87,78,59,29.40,29.30,6,0,6,0.02
2013-12-26,51.0,30.0,13.8,32.2,22.1,10.1,88,74,46,29.40,29.24,13,1,13,0.00
2013-12-27,58.2,35.0,18.3,37.2,26.5,14.7,88,73,43,29.40,29.25,7,0,7,0.00
2013-12-28,57.7,40.0,26.4,35.0,28.8,22.1,86,67,37,29.26,28.96,11,1,11,0.00
2013-12-29,37.2,18.4,6.9,30.9,8.1,-2.8,79,64,48,29.39,28.99,25,7,25,0.00
2013-12-30,30.0,17.3,4.8,14.1,5.2,-3.2,75,60,41,29.36,29.22,12,0,12,0.00
2013-12-31,51.9,31.7,11.8,30.8,19.2,7.2,83,62,40,29.39,29.12,17,1,17,0.00
2014-1-1,35.2,22.1,9.3,22.8,14.7,3.5,81,73,59,29.34,29.07,22,6,22,0.00
2014-1-2,22.2,8.8,-1.1,6.8,-0.2,-7.7,78,67,50,29.52,29.33,16,2,16,0.00